Time;durP1;ratioP1;P1;durP2;ratioP2;P2;SDS_P1;SDS_P2;PMS_P1;PMS_P2;Temp;Humidity;BMP_temperature;BMP_pressure;BME280_temperature;BME280_humidity;BME280_pressure;Samples;Min_cycle;Max_cycle;Signal;HPM_P1;HPM_P2
2021/04/12 00:00:33;;;;;;;2.42;0.68;;;2.40;99.90;;;1.98;99.02;102213.00;5021559;28;20069;-65
2021/04/12 00:03:11;;;;;;;1.60;0.90;;;2.40;99.90;;;1.98;99.81;102223.72;5006406;28;20025;-64
2021/04/12 00:05:48;;;;;;;1.33;0.80;;;2.40;99.90;;;1.98;100.00;102229.97;5005856;28;20041;-63
2021/04/12 00:08:42;;;;;;;4.65;0.70;;;2.40;99.90;;;2.02;100.00;102226.09;5012197;28;20517;-64
2021/04/12 00:11:27;;;;;;;2.75;0.98;;;2.40;99.90;;;2.26;99.28;102238.72;5014635;28;20061;-61
2021/04/12 00:14:15;;;;;;;2.92;0.88;;;2.40;99.90;;;2.27;98.70;102240.41;5017902;28;20046;-63
2021/04/12 00:16:54;;;;;;;2.08;1.00;;;2.40;99.90;;;2.35;99.54;102238.03;5017382;28;20045;-65
2021/04/12 00:19:59;;;;;;;4.10;0.55;;;2.40;99.90;;;2.38;100.00;102232.41;5007232;28;20052;-63
2021/04/12 00:22:35;;;;;;;1.02;0.43;;;2.40;99.90;;;2.38;100.00;102233.25;5006537;28;20127;-64
2021/04/12 00:25:38;;;;;;;1.00;0.50;;;2.50;99.90;;;2.41;100.00;102241.09;5001862;28;20030;-69
2021/04/12 00:28:14;;;;;;;6.53;0.40;;;2.60;99.90;;;2.67;100.00;102238.31;5020521;28;20043;-63
2021/04/12 00:30:49;;;;;;;2.55;0.60;;;2.60;99.90;;;2.89;99.77;102233.03;5028374;28;20045;-62
2021/04/12 00:33:39;;;;;;;1.65;0.50;;;2.70;99.90;;;3.11;98.94;102238.50;5015854;28;20033;-61
2021/04/12 00:36:17;;;;;;;1.85;0.30;;;2.90;99.90;;;3.31;98.38;102226.19;5016048;28;20069;-64
2021/04/12 00:39:24;;;;;;;11.02;1.25;;;3.10;99.90;;;3.25;98.47;102232.06;5013905;28;20069;-61
2021/04/12 00:42:34;;;;;;;2.13;0.43;;;3.30;99.90;;;3.35;98.76;102229.50;5017106;28;20061;-62
2021/04/12 00:45:19;;;;;;;0.30;0.25;;;3.40;99.90;;;3.27;98.74;102233.63;5021712;28;20034;-62
2021/04/12 00:48:20;;;;;;;6.82;0.70;;;3.50;99.90;;;3.24;98.57;102236.56;5019938;28;20033;-66
2021/04/12 00:51:21;;;;;;;4.90;0.70;;;3.50;99.90;;;3.13;98.66;102247.31;5013832;28;20073;-63
2021/04/12 00:53:56;;;;;;;3.78;0.77;;;3.50;99.90;;;3.11;97.91;102243.88;5012420;28;20338;-66
2021/04/12 00:56:37;;;;;;;3.53;0.55;;;3.40;99.90;;;3.02;98.06;102249.09;5020858;28;20104;-63
2021/04/12 00:59:57;;;;;;;3.20;0.75;;;3.40;99.90;;;2.94;97.92;102249.66;4999626;28;20038;-66
2021/04/12 01:02:49;;;;;;;1.90;0.50;;;3.30;99.90;;;2.87;97.97;102251.97;5019238;28;20046;-63
2021/04/12 01:05:34;;;;;;;7.50;0.88;;;3.20;99.90;;;2.80;97.92;102244.50;5014959;28;20065;-64
2021/04/12 01:08:37;;;;;;;2.55;0.57;;;3.10;99.90;;;2.73;98.18;102248.59;5015617;28;20058;-62
2021/04/12 01:11:45;;;;;;;1.67;0.52;;;3.00;99.90;;;2.69;98.26;102249.81;5021830;28;20041;-63
2021/04/12 01:14:46;;;;;;;0.45;0.45;;;3.00;99.90;;;2.68;97.85;102248.97;5014067;28;20140;-64
2021/04/12 01:17:53;;;;;;;5.95;0.50;;;2.90;99.90;;;2.65;97.60;102251.00;5014843;28;20061;-68
2021/04/12 01:21:07;;;;;;;6.18;0.65;;;2.90;99.90;;;2.49;97.65;102252.13;5011810;28;20149;-61
2021/04/12 01:23:59;;;;;;;3.03;0.43;;;2.80;99.90;;;2.50;97.75;102253.84;5018931;28;20784;-63
2021/04/12 01:26:49;;;;;;;1.40;0.55;;;2.80;99.90;;;2.40;98.23;102252.81;5009651;28;20103;-63
2021/04/12 01:30:11;;;;;;;2.05;0.68;;;2.70;99.90;;;2.40;98.05;102258.19;5019991;28;20041;-64
2021/04/12 01:33:22;;;;;;;1.00;0.60;;;2.70;99.90;;;2.18;98.92;102258.06;5030929;28;20484;-66
2021/04/12 01:36:24;;;;;;;2.40;0.80;;;2.60;99.90;;;2.12;99.50;102266.56;5016218;28;20038;-64
2021/04/12 01:39:38;;;;;;;0.65;0.47;;;2.50;99.90;;;2.12;99.71;102263.88;5014352;28;20037;-68
2021/04/12 01:42:36;;;;;;;7.13;1.33;;;2.50;99.90;;;2.12;98.92;102269.25;5010637;28;20125;-66
2021/04/12 01:45:42;;;;;;;3.72;0.90;;;2.50;99.90;;;2.00;99.80;102270.13;5020562;28;20104;-66
2021/04/12 01:48:46;;;;;;;1.27;0.38;;;2.50;99.90;;;1.99;100.00;102273.78;4999952;28;20045;-63
2021/04/12 01:51:49;;;;;;;4.63;0.68;;;2.40;99.90;;;1.91;100.00;102276.16;5013900;28;20449;-62
2021/04/12 01:54:49;;;;;;;1.83;0.43;;;2.40;99.90;;;1.99;100.00;102279.16;5017608;28;20100;-61
2021/04/12 01:57:38;;;;;;;2.88;0.73;;;2.40;99.90;;;2.05;100.00;102284.06;5021038;28;20046;-62
2021/04/12 02:00:25;;;;;;;2.05;1.15;;;2.40;99.90;;;2.06;100.00;102285.78;5003765;28;20034;-63
2021/04/12 02:03:13;;;;;;;1.95;0.47;;;2.40;99.90;;;2.09;100.00;102293.63;5011267;28;20033;-60
2021/04/12 02:06:00;;;;;;;2.53;0.57;;;2.40;99.90;;;2.16;100.00;102303.81;5020912;28;20494;-63
2021/04/12 02:08:45;;;;;;;0.70;0.38;;;2.40;99.90;;;2.15;100.00;102295.88;5014351;28;20037;-64
2021/04/12 02:11:33;;;;;;;1.85;0.50;;;2.40;99.90;;;2.19;99.10;102292.88;5023674;28;20062;-66
2021/04/12 02:14:33;;;;;;;8.70;0.93;;;2.40;99.90;;;2.16;98.19;102293.06;5019195;28;20484;-59
2021/04/12 02:17:15;;;;;;;0.88;0.52;;;2.40;99.90;;;2.23;97.73;102296.19;5011163;28;20209;-64
2021/04/12 02:19:58;;;;;;;7.72;0.65;;;2.40;99.90;;;2.26;97.51;102295.13;5018216;28;20038;-69
2021/04/12 02:22:44;;;;;;;0.52;0.47;;;2.40;99.90;;;2.24;97.15;102300.59;5017626;28;20046;-63
2021/04/12 02:25:36;;;;;;;5.05;1.15;;;2.40;99.90;;;2.23;96.94;102298.88;5027707;28;20045;-70
2021/04/12 02:28:36;;;;;;;1.80;0.60;;;2.40;99.90;;;2.22;96.95;102307.91;5012817;28;20045;-63
2021/04/12 02:31:21;;;;;;;1.90;0.30;;;2.40;99.90;;;2.25;96.54;102302.31;5023963;28;20030;-63
2021/04/12 02:34:42;;;;;;;5.88;0.73;;;2.50;99.90;;;2.24;95.66;102305.97;5003013;28;20537;-64
2021/04/12 02:37:33;;;;;;;2.55;0.77;;;2.50;99.90;;;2.30;95.57;102304.66;5021466;28;20033;-66
2021/04/12 02:40:17;;;;;;;2.40;0.68;;;2.50;99.90;;;2.27;94.44;102300.34;5011727;28;20923;-64
2021/04/12 02:43:16;;;;;;;0.75;0.70;;;2.50;99.90;;;2.25;94.15;102313.06;5021857;28;20135;-64
2021/04/12 02:46:14;;;;;;;2.55;1.17;;;2.50;99.90;;;2.29;94.20;102308.31;5004145;28;20029;-64
2021/04/12 02:49:06;;;;;;;0.88;0.45;;;2.50;99.90;;;2.22;93.80;102310.59;5021781;28;20037;-62
2021/04/12 02:52:02;;;;;;;4.20;0.73;;;2.50;99.90;;;2.24;93.88;102316.72;5019064;28;20033;-67
2021/04/12 02:54:59;;;;;;;2.67;0.52;;;2.50;99.90;;;2.21;93.32;102316.94;5016541;28;20052;-62
2021/04/12 02:57:45;;;;;;;1.13;0.55;;;2.40;99.90;;;2.03;93.18;102315.56;5005726;28;20057;-61
2021/04/12 03:00:57;;;;;;;2.63;0.70;;;2.40;99.90;;;2.00;92.89;102318.47;5010050;28;20034;-68
2021/04/12 03:04:00;;;;;;;1.13;0.60;;;2.40;99.90;;;2.06;92.56;102318.00;5014298;28;20041;-62
2021/04/12 03:06:54;;;;;;;4.57;0.85;;;2.40;99.90;;;2.23;91.75;102314.13;5010927;28;20042;-71
2021/04/12 03:09:48;;;;;;;4.78;0.63;;;2.30;99.90;;;2.19;91.02;102314.34;5016776;28;20053;-71
2021/04/12 03:12:38;;;;;;;6.75;0.75;;;2.30;99.90;;;2.27;91.05;102321.84;5011955;28;20060;-71
2021/04/12 03:15:16;;;;;;;3.13;1.02;;;2.30;99.90;;;2.27;90.83;102318.31;5011243;28;20125;-69
2021/04/12 03:18:09;;;;;;;1.60;0.60;;;2.30;99.90;;;2.20;91.48;102320.59;5012026;28;20164;-71
2021/04/12 03:21:06;;;;;;;2.35;0.98;;;2.30;99.90;;;2.07;91.46;102317.06;5010029;28;20065;-72
2021/04/12 03:24:03;;;;;;;5.35;0.82;;;2.30;99.90;;;1.99;91.36;102327.50;5017431;28;20084;-71
2021/04/12 03:27:26;;;;;;;2.00;0.60;;;2.40;99.90;;;1.97;91.70;102316.00;5006352;28;20033;-71
2021/04/12 03:30:25;;;;;;;1.70;0.70;;;2.30;99.90;;;1.95;91.54;102324.16;5014747;28;20048;-70
2021/04/12 03:33:15;;;;;;;1.20;0.60;;;2.30;99.90;;;1.98;91.20;102323.06;5016954;28;20033;-71
2021/04/12 03:36:31;;;;;;;2.63;1.63;;;2.20;99.90;;;1.79;91.35;102321.69;5008598;28;20389;-70
2021/04/12 03:39:09;;;;;;;2.17;0.60;;;2.20;99.90;;;1.80;91.25;102323.41;5010297;28;20034;-70
2021/04/12 03:42:31;;;;;;;4.43;0.63;;;2.20;99.90;;;1.70;91.37;102322.31;5012486;28;20037;-71
2021/04/12 03:45:55;;;;;;;3.05;0.82;;;2.20;99.90;;;1.68;91.15;102329.66;5013198;28;20488;-70
2021/04/12 03:48:45;;;;;;;1.33;0.63;;;2.10;99.90;;;1.72;91.78;102328.44;5021554;28;20042;-70
2021/04/12 03:51:37;;;;;;;1.45;0.45;;;2.10;99.90;;;1.72;91.27;102324.91;5018902;28;20242;-69
2021/04/12 03:54:41;;;;;;;4.72;0.75;;;2.10;99.90;;;1.85;91.25;102327.59;5012336;28;20531;-70
2021/04/12 03:57:47;;;;;;;2.03;0.70;;;2.10;99.90;;;1.88;92.44;102340.81;5013141;28;20563;-71
2021/04/12 04:00:34;;;;;;;;;;;2.10;99.90;;;2.07;94.39;102351.97;5014219;28;20501;-70
2021/04/12 04:03:37;;;;;;;6.97;1.25;;;2.20;99.90;;;2.50;93.47;102363.19;5020209;28;19924;-70
2021/04/12 04:06:22;;;;;;;4.80;0.50;;;2.40;99.90;;;2.52;95.18;102370.16;5018326;28;20045;-73
2021/04/12 04:08:59;;;;;;;2.47;0.85;;;2.50;99.90;;;2.50;95.79;102382.00;5021070;28;20507;-73
2021/04/12 04:11:25;;;;;;;3.42;0.65;;;2.60;99.90;;;2.60;95.80;102366.91;5022835;28;20038;-71
2021/04/12 04:14:23;;;;;;;3.42;0.70;;;2.60;99.90;;;2.53;95.66;102361.13;5016516;28;20049;-71
2021/04/12 04:17:14;;;;;;;1.08;0.45;;;2.70;99.90;;;2.73;95.05;102356.13;5022302;28;20544;-71
2021/04/12 04:19:56;;;;;;;1.45;0.73;;;2.80;99.90;;;2.77;94.66;102363.00;5016706;28;20101;-72
2021/04/12 04:23:08;;;;;;;2.97;0.80;;;2.80;99.90;;;2.73;94.17;102350.75;5026982;28;20049;-71
2021/04/12 04:26:10;;;;;;;1.80;0.60;;;2.90;99.90;;;2.65;94.48;102355.84;5019727;28;20508;-70
2021/04/12 04:29:10;;;;;;;1.63;0.40;;;3.00;99.90;;;2.65;93.97;102355.84;5017149;28;20496;-72
2021/04/12 04:32:31;;;;;;;1.85;0.75;;;3.00;99.90;;;2.59;94.08;102364.38;5012608;28;20149;-72
2021/04/12 04:35:28;;;;;;;1.70;0.63;;;3.00;99.90;;;2.55;94.14;102359.22;5028271;28;20559;-72
2021/04/12 04:38:38;;;;;;;0.88;0.60;;;3.00;99.90;;;2.43;94.10;102354.72;5028872;28;20090;-72
2021/04/12 04:41:31;;;;;;;2.42;0.80;;;2.90;99.90;;;2.36;94.48;102353.44;5023490;28;20493;-71
2021/04/12 04:44:40;;;;;;;2.28;0.98;;;2.80;99.90;;;2.28;94.86;102361.19;5021694;28;20033;-70
2021/04/12 04:47:39;;;;;;;1.92;1.00;;;2.80;99.90;;;2.17;95.16;102358.41;5021813;28;20041;-72
2021/04/12 04:50:47;;;;;;;1.35;0.60;;;2.70;99.90;;;2.13;96.20;102370.34;5001490;28;20068;-70
2021/04/12 04:54:06;;;;;;;2.05;0.63;;;2.60;99.90;;;2.10;97.15;102367.88;5025744;28;20038;-71
2021/04/12 04:57:15;;;;;;;0.93;0.57;;;2.60;99.90;;;2.04;98.10;102369.16;5015887;28;20038;-70
2021/04/12 04:59:58;;;;;;;2.88;0.60;;;2.50;99.90;;;2.08;98.17;102372.47;5027960;28;20033;-70
2021/04/12 05:02:40;;;;;;;2.65;0.88;;;2.50;99.90;;;2.08;97.88;102377.84;5016162;28;20424;-70
2021/04/12 05:05:39;;;;;;;4.40;1.10;;;2.50;99.90;;;1.98;98.09;102391.06;5010447;28;20120;-71
2021/04/12 05:08:58;;;;;;;2.88;0.95;;;2.50;99.90;;;2.01;98.09;102390.00;5024404;28;20116;-71
2021/04/12 05:12:01;;;;;;;1.92;0.82;;;2.40;99.90;;;2.03;98.24;102398.81;5021968;28;20069;-71
2021/04/12 05:15:21;;;;;;;3.78;0.93;;;2.40;99.90;;;2.07;98.79;102403.00;5024067;28;20053;-73
2021/04/12 05:18:02;;;;;;;4.65;0.90;;;2.50;99.90;;;2.09;98.44;102393.88;5022351;28;20480;-69
2021/04/12 05:21:21;;;;;;;2.53;0.77;;;2.50;99.90;;;2.04;99.12;102406.75;5029269;28;20076;-70
2021/04/12 05:24:05;;;;;;;6.03;1.15;;;2.50;99.90;;;2.17;99.48;102401.38;5022250;28;20045;-71
2021/04/12 05:26:55;;;;;;;1.85;0.88;;;2.50;99.90;;;2.28;100.00;102403.31;5006428;28;20025;-70
2021/04/12 05:29:51;;;;;;;1.65;0.82;;;2.60;99.90;;;2.47;99.50;102404.59;5028795;28;20480;-69
2021/04/12 05:32:35;;;;;;;3.35;1.05;;;2.80;99.90;;;2.69;99.89;102406.59;5016321;28;20591;-70
2021/04/12 05:35:31;;;;;;;3.70;1.17;;;2.90;99.90;;;2.92;99.34;102411.16;5022146;28;20045;-71
2021/04/12 05:38:32;;;;;;;4.85;0.80;;;3.10;99.90;;;3.18;99.21;102422.66;5017512;28;20041;-68
2021/04/12 05:41:32;;;;;;;5.07;1.23;;;3.40;99.90;;;3.49;99.19;102442.78;5017782;28;20488;-71
2021/04/12 05:44:39;;;;;;;4.18;1.05;;;3.60;99.90;;;3.97;96.72;102446.25;5018886;28;20321;-70
2021/04/12 05:47:46;;;;;;;0.57;0.50;;;3.80;99.90;;;4.14;93.29;102460.28;5050411;28;20025;-71
2021/04/12 05:50:59;;;;;;;7.35;0.90;;;3.90;99.90;;;3.66;92.59;102463.03;5050066;28;20029;-71
2021/04/12 05:53:43;;;;;;;4.43;1.30;;;3.90;99.90;;;3.53;92.49;102470.31;5008461;28;20092;-73
2021/04/12 05:56:37;;;;;;;1.00;0.55;;;3.70;99.90;;;3.27;93.33;102480.34;5028484;28;20083;-72
2021/04/12 05:59:41;;;;;;;3.42;0.50;;;3.50;99.90;;;3.21;93.66;102488.84;5012552;28;20026;-71
2021/04/12 06:02:42;;;;;;;4.22;0.77;;;3.40;99.90;;;3.08;93.79;102491.56;5005248;28;20034;-70
2021/04/12 06:05:37;;;;;;;5.20;1.10;;;3.30;99.90;;;3.13;94.16;102492.13;5013416;28;20053;-70
2021/04/12 06:08:35;;;;;;;2.47;0.90;;;3.30;99.90;;;3.16;94.59;102497.25;5025737;28;20034;-71
2021/04/12 06:11:26;;;;;;;1.95;0.70;;;3.30;99.90;;;3.40;93.54;102496.44;5016890;28;20018;-69
2021/04/12 06:14:28;;;;;;;4.45;0.70;;;3.30;99.90;;;3.52;92.98;102488.31;5014850;28;20489;-68
2021/04/12 06:17:27;;;;;;;2.17;0.77;;;3.40;99.90;;;3.41;93.42;102487.38;5016201;28;20097;-70
2021/04/12 06:20:32;;;;;;;5.05;0.88;;;3.40;99.90;;;3.47;93.95;102493.19;5014524;28;20045;-67
2021/04/12 06:23:45;;;;;;;1.33;0.80;;;3.50;99.90;;;3.55;93.82;102495.31;4995034;28;20057;-67
2021/04/12 06:26:55;;;;;;;1.30;0.65;;;3.60;99.90;;;3.45;94.85;102500.50;5024176;28;20099;-67
2021/04/12 06:30:01;;;;;;;4.60;0.73;;;3.70;99.90;;;3.74;94.83;102494.78;5019948;28;20100;-67
2021/04/12 06:32:42;;;;;;;;;;;3.90;99.90;;;3.81;95.00;102491.53;5021392;28;20092;-66
2021/04/12 06:35:30;;;;;;;5.07;0.75;;;4.00;99.90;;;4.03;95.00;102493.44;5017323;28;19972;-66
2021/04/12 06:38:32;;;;;;;4.70;0.90;;;4.20;99.90;;;4.19;94.82;102485.00;5016009;28;20120;-66
2021/04/12 06:41:41;;;;;;;0.50;0.50;;;4.30;99.90;;;4.58;94.38;102492.69;5015015;28;20046;-66
2021/04/12 06:44:44;;;;;;;5.53;1.13;;;4.60;99.90;;;4.88;93.91;102500.19;5016806;28;20026;-63
2021/04/12 06:47:56;;;;;;;1.45;0.45;;;4.80;99.90;;;5.39;93.81;102503.22;5011936;28;20203;-64
2021/04/12 06:50:55;;;;;;;1.48;0.60;;;5.20;99.90;;;5.85;92.03;102518.31;5014977;28;20037;-62
2021/04/12 06:53:56;;;;;;;4.10;1.17;;;5.60;99.90;;;6.14;90.45;102514.03;5019634;28;20029;-61
2021/04/12 06:57:14;;;;;;;0.80;0.73;;;5.90;99.90;;;6.44;88.57;102504.25;5025749;28;20045;-65
2021/04/12 07:00:05;;;;;;;0.65;0.50;;;6.20;99.90;;;6.59;87.37;102513.75;5013919;28;20116;-60
2021/04/12 07:03:15;;;;;;;2.05;0.93;;;6.40;99.90;;;6.43;86.21;102513.41;5025546;28;20049;-63
2021/04/12 07:06:24;;;;;;;1.25;0.80;;;6.50;99.90;;;6.62;85.81;102521.63;5018164;28;20476;-60
2021/04/12 07:09:34;;;;;;;3.00;0.85;;;6.50;99.90;;;6.51;85.51;102516.28;5028864;28;20068;-62
2021/04/12 07:12:36;;;;;;;1.95;0.80;;;6.60;99.90;;;6.45;85.65;102522.22;5012437;28;20038;-61
2021/04/12 07:15:39;;;;;;;3.95;0.88;;;6.60;99.90;;;6.70;84.89;102526.34;5021140;28;20052;-61
2021/04/12 07:18:42;;;;;;;3.97;0.75;;;6.70;99.90;;;6.78;84.32;102530.09;5023957;28;20034;-63
2021/04/12 07:21:44;;;;;;;2.72;0.90;;;6.80;99.90;;;6.97;84.02;102523.94;5010441;28;20462;-62
2021/04/12 07:24:50;;;;;;;3.53;1.30;;;6.80;99.90;;;7.23;82.64;102519.75;5008766;28;20484;-61
2021/04/12 07:27:52;;;;;;;1.60;0.70;;;7.00;99.90;;;7.55;82.02;102529.56;5012013;28;20116;-62
2021/04/12 07:30:59;;;;;;;3.72;0.70;;;7.30;99.90;;;7.31;80.67;102532.63;5019303;28;20042;-63
2021/04/12 07:33:43;;;;;;;1.70;0.70;;;7.40;99.90;;;7.55;80.44;102530.41;5013741;28;20033;-62
2021/04/12 07:36:15;;;;;;;3.15;0.70;;;7.50;99.90;;;7.75;80.37;102542.13;5018843;28;20065;-61
2021/04/12 07:39:24;;;;;;;2.30;0.93;;;7.60;99.90;;;8.60;79.32;102538.72;5011789;28;20034;-62
2021/04/12 07:42:14;;;;;;;2.55;0.80;;;7.90;99.90;;;10.58;73.91;102546.16;5031201;28;20052;-62
2021/04/12 07:45:37;;;;;;;1.63;0.65;;;9.10;99.90;;;11.40;64.12;102551.09;5021880;28;20067;-63
2021/04/12 07:48:17;;;;;;;1.45;0.55;;;10.10;99.90;;;12.46;62.03;102561.25;5016367;28;20033;-62
2021/04/12 07:51:14;;;;;;;2.97;0.73;;;11.20;99.90;;;12.27;59.77;102553.41;5020319;28;20527;-64
2021/04/12 07:54:19;;;;;;;3.85;1.13;;;11.60;99.90;;;12.73;58.54;102555.44;5002413;28;20030;-62
2021/04/12 07:57:38;;;;;;;3.77;0.87;;;12.00;99.90;;;12.54;57.35;102563.09;5018526;28;20030;-63
2021/04/12 08:00:54;;;;;;;3.33;0.88;;;12.20;99.90;;;11.95;58.80;102565.97;5028904;28;20132;-63
2021/04/12 08:04:09;;;;;;;8.10;1.50;;;12.10;99.90;;;11.26;59.65;102558.88;5015249;28;20033;-64
2021/04/12 08:07:16;;;;;;;1.35;0.60;;;11.60;99.90;;;10.57;61.58;102571.69;5020885;28;20382;-63
2021/04/12 08:10:34;;;;;;;4.13;0.60;;;11.00;99.90;;;10.23;63.83;102564.25;5011917;28;20438;-63
2021/04/12 08:13:25;;;;;;;2.58;0.90;;;10.50;99.90;;;9.60;64.21;102572.38;5011503;28;20042;-63
2021/04/12 08:16:22;;;;;;;5.40;1.00;;;10.10;99.90;;;9.78;63.00;102576.00;5013698;28;20034;-62
2021/04/12 08:19:55;;;;;;;5.80;1.00;;;9.80;99.90;;;9.64;63.89;102579.22;5016971;28;20080;-63
2021/04/12 08:22:52;;;;;;;1.67;0.77;;;9.60;99.90;;;10.38;61.17;102584.47;5021843;28;20136;-64
2021/04/12 08:26:14;;;;;;;4.38;0.85;;;9.80;99.90;;;10.79;58.75;102593.81;5012745;28;20068;-63
2021/04/12 08:29:36;;;;;;;1.02;0.50;;;10.10;99.90;;;10.95;58.23;102584.91;5016754;28;20059;-65
2021/04/12 08:33:05;;;;;;;2.25;0.70;;;10.50;99.90;;;11.89;55.82;102588.47;5019776;28;20054;-64
2021/04/12 08:36:31;;;;;;;3.70;0.70;;;11.10;99.90;;;11.29;56.61;102596.69;5012714;28;20037;-64
2021/04/12 08:39:17;;;;;;;2.88;0.60;;;11.20;99.80;;;10.88;56.60;102592.88;5017583;28;20061;-63
2021/04/12 08:42:06;;;;;;;1.75;0.40;;;11.00;99.50;;;10.66;56.64;102592.53;5006166;28;20044;-64
2021/04/12 08:45:40;;;;;;;0.52;0.43;;;10.70;99.50;;;10.47;56.52;102593.56;5015691;28;20041;-64
2021/04/12 08:48:18;;;;;;;1.83;0.40;;;10.30;99.40;;;11.06;58.07;102600.97;5014328;28;20073;-63
2021/04/12 08:51:17;;;;;;;2.78;0.60;;;10.40;99.90;;;11.63;55.18;102593.97;4997572;28;20451;-64
2021/04/12 08:54:15;;;;;;;1.65;0.52;;;10.80;99.90;;;11.79;52.42;102595.94;5021983;28;21009;-63
2021/04/12 08:57:09;;;;;;;1.80;1.15;;;11.10;98.90;;;13.56;45.57;102596.09;5015131;28;20395;-63
2021/04/12 09:00:11;;;;;;;1.55;0.65;;;11.90;97.30;;;16.16;39.92;102593.69;5032416;28;20575;-63
2021/04/12 09:03:25;;;;;;;2.47;0.60;;;13.80;95.80;;;19.77;33.94;102592.59;5016997;28;20041;-64
2021/04/12 09:06:46;;;;;;;0.88;0.60;;;16.40;93.90;;;20.32;30.47;102585.50;5015705;28;20056;-64
2021/04/12 09:09:39;;;;;;;3.97;0.80;;;18.40;86.90;;;18.41;32.49;102592.25;5015765;28;20437;-63
2021/04/12 09:12:29;;;;;;;3.97;0.90;;;18.40;85.20;;;15.28;38.02;102605.63;5013825;28;20082;-65
2021/04/12 09:15:25;;;;;;;1.95;0.68;;;17.00;83.80;;;14.17;42.51;102603.47;5012467;28;20033;-63
2021/04/12 09:18:24;;;;;;;4.18;1.15;;;15.40;88.70;;;13.81;46.27;102610.53;5007428;28;20048;-64
2021/04/12 09:21:46;;;;;;;4.13;0.85;;;14.20;92.30;;;14.62;44.66;102615.50;5025622;28;20034;-66
2021/04/12 09:24:33;;;;;;;4.93;1.10;;;14.50;93.20;;;13.73;43.58;102616.03;5001539;28;20132;-65
2021/04/12 09:27:43;;;;;;;3.72;1.20;;;14.30;92.00;;;14.52;44.39;102628.63;5006262;28;20029;-67
2021/04/12 09:31:05;;;;;;;1.70;1.17;;;14.30;94.40;;;17.57;39.26;102616.53;5019794;28;20400;-64
2021/04/12 09:34:07;;;;;;;7.68;1.20;;;15.60;94.50;;;19.92;35.83;102624.44;5021285;28;20041;-64
2021/04/12 09:36:51;;;;;;;2.88;1.20;;;18.00;91.10;;;21.66;30.91;102626.56;5009586;28;20086;-65
2021/04/12 09:40:13;;;;;;;5.53;0.95;;;19.60;90.40;;;17.95;31.18;102627.09;5016655;28;20034;-66
2021/04/12 09:42:51;;;;;;;4.25;0.90;;;19.50;76.30;;;18.07;34.13;102628.22;5019469;28;20049;-65
2021/04/12 09:45:41;;;;;;;1.83;0.70;;;18.30;80.70;;;18.50;33.38;102626.88;5015118;28;20037;-65
2021/04/12 09:48:24;;;;;;;3.28;0.93;;;17.90;81.60;;;18.38;34.20;102633.22;5015397;28;20393;-66
2021/04/12 09:51:37;;;;;;;2.05;0.80;;;17.60;82.40;;;19.64;32.79;102639.66;5010912;28;20404;-65
2021/04/12 09:54:30;;;;;;;3.13;0.68;;;18.20;82.70;;;18.96;32.58;102628.84;5014151;28;20033;-66
2021/04/12 09:57:49;;;;;;;3.78;0.60;;;18.40;80.10;;;17.63;34.98;102636.91;5023766;28;20480;-66
2021/04/12 10:00:49;;;;;;;3.35;0.95;;;17.90;78.70;;;17.26;35.93;102635.41;5023129;28;20076;-65
2021/04/12 10:03:57;;;;;;;3.22;1.33;;;17.40;81.30;;;17.92;33.08;102646.84;5029782;28;20108;-64
2021/04/12 10:06:35;;;;;;;1.88;0.95;;;17.70;84.10;;;17.13;35.26;102640.78;5018707;28;20046;-64
2021/04/12 10:09:35;;;;;;;4.55;1.35;;;17.20;81.30;;;17.27;33.67;102650.81;5016206;28;20033;-65
2021/04/12 10:12:33;;;;;;;3.83;0.93;;;17.30;77.60;;;18.48;30.54;102653.81;5008327;28;20081;-65
2021/04/12 10:15:05;;;;;;;2.60;1.10;;;18.20;75.10;;;19.82;32.14;102654.47;5018048;28;20488;-64
2021/04/12 10:17:45;;;;;;;2.13;1.10;;;18.80;79.90;;;21.09;29.07;102647.16;5010335;28;20056;-65
2021/04/12 10:20:30;;;;;;;5.25;1.27;;;20.00;74.80;;;20.46;28.74;102653.56;5018248;28;20038;-65
2021/04/12 10:22:57;;;;;;;1.33;0.65;;;20.20;71.50;;;19.81;32.72;102655.53;5022705;28;20072;-65
2021/04/12 10:25:34;;;;;;;3.67;0.90;;;19.80;77.60;;;19.98;33.60;102655.06;5021280;28;20032;-65
2021/04/12 10:28:26;;;;;;;4.28;1.35;;;19.80;76.70;;;17.84;33.55;102666.25;5020414;28;20426;-64
2021/04/12 10:31:25;;;;;;;5.60;1.67;;;19.00;72.30;;;15.74;37.27;102665.88;5015867;28;20083;-64
2021/04/12 10:34:09;;;;;;;2.90;1.05;;;17.80;71.70;;;15.50;37.33;102656.84;5011252;28;20025;-65
2021/04/12 10:37:00;;;;;;;2.22;0.80;;;16.60;77.80;;;18.28;35.30;102652.06;5012954;28;20034;-64
2021/04/12 10:39:48;;;;;;;1.92;1.05;;;17.00;81.60;;;18.29;33.04;102659.25;5025702;28;20427;-64
2021/04/12 10:42:42;;;;;;;3.67;0.70;;;17.40;77.40;;;16.92;36.97;102660.94;5013889;28;20467;-64
2021/04/12 10:45:40;;;;;;;3.20;0.90;;;16.90;77.70;;;15.76;38.35;102663.78;5023820;28;20068;-66
2021/04/12 10:48:46;;;;;;;2.33;1.00;;;16.00;81.30;;;15.03;43.37;102667.25;5006564;28;20046;-65
2021/04/12 10:51:33;;;;;;;5.45;1.45;;;15.20;88.70;;;14.77;45.92;102671.25;5013148;28;20145;-62
2021/04/12 10:54:23;;;;;;;7.32;1.10;;;14.70;91.20;;;14.79;45.45;102677.38;5013316;28;20153;-66
2021/04/12 10:57:25;;;;;;;4.50;1.45;;;14.80;91.20;;;13.67;46.63;102668.72;5020128;28;20037;-65
2021/04/12 10:59:53;;;;;;;3.47;1.20;;;14.40;88.60;;;14.21;45.28;102671.59;5020213;28;20034;-67
2021/04/12 11:02:48;;;;;;;4.70;0.88;;;14.20;91.20;;;14.04;45.06;102671.66;5008692;28;20120;-67
2021/04/12 11:05:18;;;;;;;6.15;1.13;;;14.10;91.30;;;13.31;42.65;102668.34;5010590;28;20514;-63
2021/04/12 11:08:10;;;;;;;7.88;1.00;;;13.80;88.70;;;13.58;47.08;102673.38;5011830;28;20555;-63
2021/04/12 11:11:12;;;;;;;3.78;0.57;;;13.60;93.00;;;13.64;45.19;102671.84;5014534;28;20055;-64
2021/04/12 11:14:22;;;;;;;2.65;0.90;;;13.60;91.00;;;13.44;46.31;102674.09;5013534;28;20050;-67
2021/04/12 11:17:21;;;;;;;2.30;0.82;;;13.60;92.50;;;13.62;46.90;102682.09;5016534;28;20389;-65
2021/04/12 11:20:31;;;;;;;1.10;0.70;;;13.50;92.80;;;13.15;43.75;102677.41;5030250;28;20060;-66
2021/04/12 11:23:17;;;;;;;2.78;0.57;;;13.30;90.90;;;13.47;45.44;102687.44;5013013;28;20026;-66
2021/04/12 11:25:58;;;;;;;5.32;1.45;;;13.20;92.30;;;12.63;43.11;102685.06;5021622;28;20117;-64
2021/04/12 11:28:38;;;;;;;1.85;0.82;;;13.10;89.30;;;12.51;43.49;102692.72;5010926;28;20037;-65
2021/04/12 11:31:38;;;;;;;2.88;0.77;;;12.90;90.10;;;12.25;45.29;102683.78;5024765;28;20036;-66
2021/04/12 11:34:25;;;;;;;1.67;0.77;;;12.60;90.50;;;12.47;46.74;102699.53;5024832;28;20041;-65
2021/04/12 11:37:09;;;;;;;2.78;1.00;;;12.50;92.30;;;12.53;44.70;102685.19;5014874;28;20084;-66
2021/04/12 11:39:41;;;;;;;2.85;1.58;;;12.40;91.30;;;12.27;45.28;102692.66;5016621;28;20100;-63
2021/04/12 11:42:17;;;;;;;3.83;0.88;;;12.30;91.40;;;11.72;47.56;102704.00;5015445;28;20117;-65
2021/04/12 11:44:55;;;;;;;5.97;1.10;;;12.00;92.00;;;12.23;49.17;102694.00;5008055;28;20068;-66
2021/04/12 11:47:52;;;;;;;2.20;0.80;;;12.10;93.70;;;12.60;48.28;102699.03;5022648;28;20034;-67
2021/04/12 11:50:56;;;;;;;2.65;1.23;;;12.30;93.20;;;12.53;46.10;102701.56;5014222;28;20393;-67
2021/04/12 11:53:48;;;;;;;1.75;0.80;;;12.50;92.20;;;12.57;46.26;102702.97;5024988;28;20057;-68
2021/04/12 11:56:48;;;;;;;7.30;1.50;;;12.50;93.20;;;12.56;44.53;102708.59;5016690;28;20124;-65
2021/04/12 11:59:35;;;;;;;5.38;1.23;;;12.70;92.00;;;12.27;44.12;102706.31;5013384;28;20496;-67
2021/04/12 12:02:35;;;;;;;7.45;1.10;;;12.70;91.90;;;12.82;44.57;102711.19;5014588;28;20046;-69
2021/04/12 12:05:14;;;;;;;4.90;1.20;;;12.70;91.90;;;12.63;44.63;102712.38;5021509;28;20042;-65
2021/04/12 12:07:47;;;;;;;3.45;1.17;;;12.80;91.00;;;12.54;46.92;102714.22;5017462;28;20030;-69
2021/04/12 12:10:20;;;;;;;3.97;1.00;;;12.70;92.30;;;11.83;46.89;102720.13;5012635;28;20493;-64
2021/04/12 12:12:59;;;;;;;4.18;1.00;;;12.40;91.30;;;11.80;46.08;102728.63;5009310;28;20091;-64
2021/04/12 12:15:59;;;;;;;3.17;0.75;;;12.20;91.40;;;11.68;47.94;102727.16;5005858;28;20030;-66
2021/04/12 12:18:35;;;;;;;6.03;1.45;;;12.00;92.70;;;11.49;48.73;102721.91;5019437;28;20060;-63
2021/04/12 12:21:24;;;;;;;3.72;1.20;;;11.70;93.20;;;11.36;46.35;102729.66;5028000;28;20399;-64
2021/04/12 12:24:25;;;;;;;1.52;0.70;;;11.50;91.90;;;11.52;46.48;102727.03;5012831;28;20041;-66